Velkommen til

Stord Flyklubb

Om oss

Historien til Stord Flyklubb

Klubbens aner strekker seg tilbake til 1969 med sjøfly. Siden har vi sett vanlige motorfly og glidefly, men det er sportsfly som er hovedfokuset i dag

En kilometer vei vil ta deg en kilometer

En kilometer rullebane vil ta deg hvor enn du vil

Bli pilot

Alle kan lære å fly!

Ta en prøvetur hos oss og se hvor moro det er! Prøveturen gir deg en mulighet til å se om dette er noe du har lyst til å gå videre med.

Teorien tas av de fleste som hjemmeundervisning. Nytt læremateriell gjør opplæringen både enklere og mer strømlinjeformet.

Praksis kan påbegynnes mens man tar teorien, men teorien må være bestått før man kan fly solo. 

METAR Haugesund
ENHD 080550Z 12029KT 9999 FEW045 SCT100 04/M04 Q0997 ENHD 080520Z 12026G36KT 9999 FEW045 BKN100 04/M04 Q0997 ENHD 080450Z AUTO 11024KT 9999 NCD 04/M04 Q0996 ENHD 080420Z AUTO 11026G36KT 9999 NCD 04/M04 Q0996 ENHD 080350Z AUTO 11024G34KT 9999 NCD 04/M04 Q0997 ENHD 080320Z AUTO 11025G35KT 9999 FEW047/// 04/M04 Q0997 TAF ENHD 080500Z 0806/0815 11025KT 9999 FEW025 SCT050 TEMPO 0806/0815 13028G38KT
METAR Flesland
ENBR 080550Z 07004KT 020V100 CAVOK 03/M08 Q0998 NOSIG RMK WIND 1200FT 09007KT ENBR 080520Z 10007KT CAVOK 03/M08 Q0998 NOSIG RMK WIND 1200FT 10013KT ENBR 080450Z 10008KT 050V120 CAVOK 03/M08 Q0998 RMK WIND 1200FT 10013KT ENBR 080420Z 11008KT 9999 NSC 03/M08 Q0998 RMK WIND 1200FT 10014KT ENBR 080350Z 11008KT 9999 NSC 03/M08 Q0998 RMK WIND 1200FT 10016KT ENBR 0806/0906 11008KT 9999 SCT070 PROB30 TEMPO 0806/0815 11015G25KT